Time;durP1;ratioP1;P1;durP2;ratioP2;P2;SDS_P1;SDS_P2;PMS_P1;PMS_P2;Temp;Humidity;BMP_temperature;BMP_pressure;BME280_temperature;BME280_humidity;BME280_pressure;Samples;Min_cycle;Max_cycle;Signal;HPM_P1;HPM_P2
2024/01/25 00:01:22;;;;;;;0.00;0.00;;;;;;;;;;5036262;28;20037;-80
2024/01/25 00:03:47;;;;;;;0.00;0.00;;;;;;;;;;5018759;28;20045;-80
2024/01/25 00:06:13;;;;;;;0.00;0.00;;;;;;;;;;5036722;28;20033;-80
2024/01/25 00:08:38;;;;;;;0.00;0.00;;;;;;;;;;5036605;28;20144;-79
2024/01/25 00:11:04;;;;;;;0.00;0.00;;;;;;;;;;5036248;28;20025;-81
2024/01/25 00:13:30;;;;;;;0.00;0.00;;;;;;;;;;5016737;28;20172;-79
2024/01/25 00:15:55;;;;;;;0.00;0.00;;;;;;;;;;5035607;28;20447;-79
2024/01/25 00:18:20;;;;;;;0.00;0.00;;;;;;;;;;5036136;28;20025;-79
2024/01/25 00:20:46;;;;;;;0.00;0.00;;;;;;;;;;5036326;28;20352;-79
2024/01/25 00:23:12;;;;;;;0.00;0.00;;;;;;;;;;5035960;28;20045;-80
2024/01/25 00:25:37;;;;;;;0.00;0.00;;;;;;;;;;5018763;28;20037;-79
2024/01/25 00:28:03;;;;;;;0.00;0.00;;;;;;;;;;5016802;28;20025;-79
2024/01/25 00:30:29;;;;;;;0.00;0.00;;;;;;;;;;5017983;28;20061;-79
2024/01/25 00:32:54;;;;;;;0.00;0.00;;;;;;;;;;5035981;28;20123;-80
2024/01/25 00:35:20;;;;;;;0.00;0.00;;;;;;;;;;5036199;28;20382;-80
2024/01/25 00:37:46;;;;;;;0.00;0.00;;;;;;;;;;5017206;28;20044;-80
2024/01/25 00:40:13;;;;;;;0.00;0.00;;;;;;;;;;5036247;28;20039;-80
2024/01/25 00:42:43;;;;;;;0.00;0.00;;;;;;;;;;5035447;28;20116;-80
2024/01/25 00:45:09;;;;;;;0.00;0.00;;;;;;;;;;5034835;28;20374;-79
2024/01/25 00:47:35;;;;;;;0.00;0.00;;;;;;;;;;5035759;28;20124;-80
2024/01/25 00:50:01;;;;;;;0.00;0.00;;;;;;;;;;5035824;28;20136;-80
2024/01/25 00:52:27;;;;;;;0.00;0.00;;;;;;;;;;5018047;28;20029;-81
2024/01/25 00:54:53;;;;;;;0.00;0.00;;;;;;;;;;5017939;28;20087;-79
2024/01/25 00:57:19;;;;;;;0.00;0.00;;;;;;;;;;5017578;28;20037;-82
2024/01/25 00:59:44;;;;;;;0.00;0.00;;;;;;;;;;5035900;28;20068;-81
2024/01/25 01:02:11;;;;;;;0.00;0.00;;;;;;;;;;5001422;28;20047;-81
2024/01/25 01:04:37;;;;;;;0.00;0.00;;;;;;;;;;5017542;28;20359;-80
2024/01/25 01:07:03;;;;;;;0.00;0.00;;;;;;;;;;5035328;28;20025;-81
2024/01/25 01:09:29;;;;;;;0.00;0.00;;;;;;;;;;5018038;28;20095;-81
2024/01/25 01:11:54;;;;;;;0.00;0.00;;;;;;;;;;5034935;28;20052;-81
2024/01/25 01:14:20;;;;;;;0.00;0.00;;;;;;;;;;5015391;28;20041;-82
2024/01/25 01:16:45;;;;;;;0.00;0.00;;;;;;;;;;5034107;28;20116;-81
2024/01/25 01:19:11;;;;;;;0.00;0.00;;;;;;;;;;5035185;28;20039;-80
2024/01/25 01:21:36;;;;;;;0.00;0.00;;;;;;;;;;5017483;28;20453;-81
2024/01/25 01:24:02;;;;;;;0.00;0.00;;;;;;;;;;5034783;28;20075;-82
2024/01/25 01:26:28;;;;;;;0.00;0.00;;;;;;;;;;5034538;28;20030;-81
2024/01/25 01:28:53;;;;;;;0.00;0.00;;;;;;;;;;5033914;28;20036;-79
2024/01/25 01:31:19;;;;;;;0.00;0.00;;;;;;;;;;5033880;28;20029;-81
2024/01/25 01:33:44;;;;;;;0.00;0.00;;;;;;;;;;5017259;28;20080;-79
2024/01/25 01:36:10;;;;;;;0.00;0.00;;;;;;;;;;5017827;28;20025;-80
2024/01/25 01:38:35;;;;;;;0.00;0.00;;;;;;;;;;5018380;28;20096;-79
2024/01/25 01:41:01;;;;;;;0.00;0.00;;;;;;;;;;5034490;28;20431;-80
2024/01/25 01:43:26;;;;;;;0.00;0.00;;;;;;;;;;5034291;28;20033;-81
2024/01/25 01:45:52;;;;;;;0.00;0.00;;;;;;;;;;5034605;28;20025;-80
2024/01/25 01:48:17;;;;;;;0.00;0.00;;;;;;;;;;5029140;28;20351;-79
2024/01/25 01:50:43;;;;;;;0.00;0.00;;;;;;;;;;5036347;28;20075;-79
2024/01/25 01:53:09;;;;;;;0.00;0.00;;;;;;;;;;5020292;28;20420;-80
2024/01/25 01:55:34;;;;;;;0.00;0.00;;;;;;;;;;5036023;28;20029;-80
2024/01/25 01:58:00;;;;;;;0.00;0.00;;;;;;;;;;5036563;28;20029;-79
2024/01/25 02:00:26;;;;;;;0.00;0.00;;;;;;;;;;5036306;28;20048;-79
2024/01/25 02:02:51;;;;;;;0.00;0.00;;;;;;;;;;5031299;28;20094;-79
2024/01/25 02:05:17;;;;;;;0.00;0.00;;;;;;;;;;5016518;28;20366;-79
2024/01/25 02:07:42;;;;;;;0.00;0.00;;;;;;;;;;5016773;28;20025;-79
2024/01/25 02:10:08;;;;;;;0.00;0.00;;;;;;;;;;5000233;28;20528;-80
2024/01/25 02:12:34;;;;;;;0.00;0.00;;;;;;;;;;5016460;28;20033;-79
2024/01/25 02:15:00;;;;;;;0.00;0.00;;;;;;;;;;5016879;28;20124;-80
2024/01/25 02:17:25;;;;;;;0.00;0.00;;;;;;;;;;5012584;28;20047;-79
2024/01/25 02:19:51;;;;;;;0.00;0.00;;;;;;;;;;5015441;28;20087;-80
2024/01/25 02:22:19;;;;;;;0.00;0.00;;;;;;;;;;5034070;28;20518;-80
2024/01/25 02:24:45;;;;;;;0.00;0.00;;;;;;;;;;5016173;28;20036;-79
2024/01/25 02:27:10;;;;;;;0.00;0.00;;;;;;;;;;5033624;28;20030;-79
2024/01/25 02:29:36;;;;;;;0.00;0.00;;;;;;;;;;5033477;28;20386;-79
2024/01/25 02:34:46;;;;;;;0.00;0.00;;;;;;;;;;5032370;28;20380;-79
2024/01/25 02:37:12;;;;;;;0.00;0.00;;;;;;;;;;5033748;28;20506;-79
2024/01/25 02:39:38;;;;;;;0.00;0.00;;;;;;;;;;5015547;28;20037;-80
2024/01/25 02:42:04;;;;;;;0.00;0.00;;;;;;;;;;5016001;28;20120;-81
2024/01/25 02:44:29;;;;;;;0.00;0.00;;;;;;;;;;5033682;28;20029;-80
2024/01/25 02:46:55;;;;;;;0.00;0.00;;;;;;;;;;5033808;28;20033;-80
2024/01/25 02:49:20;;;;;;;0.00;0.00;;;;;;;;;;5032711;28;20171;-80
2024/01/25 02:51:46;;;;;;;0.00;0.00;;;;;;;;;;5033436;28;20095;-79
2024/01/25 02:54:11;;;;;;;0.00;0.00;;;;;;;;;;5032696;28;20068;-80
2024/01/25 02:56:37;;;;;;;0.00;0.00;;;;;;;;;;5032535;28;20033;-80
2024/01/25 02:59:02;;;;;;;0.00;0.00;;;;;;;;;;5015396;28;20048;-80
2024/01/25 03:01:28;;;;;;;0.00;0.00;;;;;;;;;;5033070;28;20029;-79
2024/01/25 03:03:53;;;;;;;0.00;0.00;;;;;;;;;;5033232;28;20029;-80
2024/01/25 03:06:19;;;;;;;0.00;0.00;;;;;;;;;;5032125;28;20032;-80
2024/01/25 03:08:45;;;;;;;0.00;0.00;;;;;;;;;;5033160;28;20034;-80
2024/01/25 03:11:10;;;;;;;0.00;0.00;;;;;;;;;;5033637;28;20033;-79
2024/01/25 03:13:36;;;;;;;0.00;0.00;;;;;;;;;;5033506;28;20040;-79
2024/01/25 03:16:02;;;;;;;0.00;0.00;;;;;;;;;;5033484;28;20037;-79
2024/01/25 03:18:27;;;;;;;0.00;0.00;;;;;;;;;;5032033;28;20036;-79
2024/01/25 03:20:53;;;;;;;0.00;0.00;;;;;;;;;;5032437;28;20040;-80
2024/01/25 03:23:18;;;;;;;0.00;0.00;;;;;;;;;;5028707;28;20378;-80
2024/01/25 03:25:44;;;;;;;0.00;0.00;;;;;;;;;;5033601;28;20025;-80
2024/01/25 03:28:11;;;;;;;0.00;0.00;;;;;;;;;;5033236;28;20456;-79
2024/01/25 03:30:36;;;;;;;0.00;0.00;;;;;;;;;;5015502;28;20037;-79
2024/01/25 03:33:02;;;;;;;0.00;0.00;;;;;;;;;;5015544;28;20055;-79
2024/01/25 03:35:27;;;;;;;0.00;0.00;;;;;;;;;;5034031;28;20087;-80
2024/01/25 03:37:53;;;;;;;0.00;0.00;;;;;;;;;;5031519;28;20040;-79
2024/01/25 03:40:18;;;;;;;0.00;0.00;;;;;;;;;;5032793;28;20120;-80
2024/01/25 03:42:44;;;;;;;0.00;0.00;;;;;;;;;;5033271;28;20036;-79
2024/01/25 03:45:13;;;;;;;0.00;0.00;;;;;;;;;;5015365;28;20409;-80
2024/01/25 03:47:38;;;;;;;0.00;0.00;;;;;;;;;;4997137;28;20083;-81
2024/01/25 03:50:04;;;;;;;0.00;0.00;;;;;;;;;;5031367;28;20049;-80
2024/01/25 03:52:30;;;;;;;0.00;0.00;;;;;;;;;;5030710;28;20043;-81
2024/01/25 03:54:55;;;;;;;0.00;0.00;;;;;;;;;;5031084;28;20033;-80
2024/01/25 03:57:21;;;;;;;0.00;0.00;;;;;;;;;;5031583;28;20371;-80
2024/01/25 03:59:47;;;;;;;0.00;0.00;;;;;;;;;;5015442;28;20128;-81
2024/01/25 04:02:12;;;;;;;0.00;0.00;;;;;;;;;;5032624;28;20244;-80
2024/01/25 04:04:37;;;;;;;0.00;0.00;;;;;;;;;;5032727;28;20061;-80
2024/01/25 04:07:03;;;;;;;0.00;0.00;;;;;;;;;;5032547;28;20029;-80
2024/01/25 04:09:29;;;;;;;0.00;0.00;;;;;;;;;;4998830;28;20131;-81
2024/01/25 04:11:55;;;;;;;0.00;0.00;;;;;;;;;;5016760;28;20038;-80
2024/01/25 04:14:21;;;;;;;0.00;0.00;;;;;;;;;;5018765;28;20033;-80
2024/01/25 04:16:46;;;;;;;0.00;0.00;;;;;;;;;;5036370;28;20035;-80
2024/01/25 04:19:12;;;;;;;0.00;0.00;;;;;;;;;;5018637;28;20029;-80
2024/01/25 04:21:38;;;;;;;0.00;0.00;;;;;;;;;;5018296;28;20033;-81
2024/01/25 04:24:04;;;;;;;0.00;0.00;;;;;;;;;;5013890;28;20045;-80
2024/01/25 04:26:29;;;;;;;0.00;0.00;;;;;;;;;;5035577;28;20116;-81
2024/01/25 04:28:55;;;;;;;0.00;0.00;;;;;;;;;;5001693;28;20036;-81
2024/01/25 04:31:20;;;;;;;0.00;0.00;;;;;;;;;;5035544;28;20079;-81
2024/01/25 04:33:46;;;;;;;0.00;0.00;;;;;;;;;;5036092;28;20379;-81
2024/01/25 04:36:11;;;;;;;0.00;0.00;;;;;;;;;;5035552;28;20026;-81
2024/01/25 04:38:37;;;;;;;0.00;0.00;;;;;;;;;;5020412;28;20446;-81
2024/01/25 04:41:02;;;;;;;0.00;0.00;;;;;;;;;;5037671;28;20105;-81
2024/01/25 04:43:28;;;;;;;0.00;0.00;;;;;;;;;;5055547;28;20032;-81
2024/01/25 04:45:53;;;;;;;0.00;0.00;;;;;;;;;;5055706;28;20060;-81
2024/01/25 04:48:19;;;;;;;0.00;0.00;;;;;;;;;;5055604;28;20025;-81
2024/01/25 04:50:44;;;;;;;0.00;0.00;;;;;;;;;;5035812;28;20045;-81
2024/01/25 04:53:11;;;;;;;0.00;0.00;;;;;;;;;;5018106;28;20481;-81
2024/01/25 04:55:37;;;;;;;0.00;0.00;;;;;;;;;;5035695;28;20061;-81
2024/01/25 04:58:03;;;;;;;0.00;0.00;;;;;;;;;;5017908;28;20033;-81
2024/01/25 05:00:28;;;;;;;0.00;0.00;;;;;;;;;;5037413;28;20048;-81
2024/01/25 05:02:54;;;;;;;0.00;0.00;;;;;;;;;;5032517;28;20446;-81
2024/01/25 05:05:20;;;;;;;0.00;0.00;;;;;;;;;;5035513;28;20040;-81
2024/01/25 05:07:46;;;;;;;0.00;0.00;;;;;;;;;;5017894;28;20061;-81
2024/01/25 05:10:11;;;;;;;0.00;0.00;;;;;;;;;;5029678;28;20060;-81
2024/01/25 05:12:37;;;;;;;0.00;0.00;;;;;;;;;;5034688;28;20075;-80
2024/01/25 05:15:03;;;;;;;0.00;0.00;;;;;;;;;;5035732;28;20048;-80
2024/01/25 05:17:28;;;;;;;0.00;0.00;;;;;;;;;;5034598;28;20034;-81
2024/01/25 05:19:54;;;;;;;0.00;0.00;;;;;;;;;;5001073;28;20036;-80
2024/01/25 05:22:21;;;;;;;0.00;0.00;;;;;;;;;;5017321;28;20367;-80
2024/01/25 05:24:47;;;;;;;0.00;0.00;;;;;;;;;;5035179;28;20049;-80
2024/01/25 05:27:12;;;;;;;0.00;0.00;;;;;;;;;;5034026;28;20434;-80
2024/01/25 05:29:38;;;;;;;0.00;0.00;;;;;;;;;;5034838;28;20395;-80
2024/01/25 05:32:03;;;;;;;0.00;0.00;;;;;;;;;;5034767;28;20448;-81
2024/01/25 05:34:29;;;;;;;0.00;0.00;;;;;;;;;;5016548;28;20075;-80
2024/01/25 05:36:54;;;;;;;0.00;0.00;;;;;;;;;;5033514;28;20033;-81
2024/01/25 05:39:20;;;;;;;0.00;0.00;;;;;;;;;;5032356;28;20026;-79
2024/01/25 05:41:46;;;;;;;0.00;0.00;;;;;;;;;;5015419;28;20048;-78
2024/01/25 05:44:12;;;;;;;0.00;0.00;;;;;;;;;;5015318;28;20473;-86
2024/01/25 05:46:38;;;;;;;0.00;0.00;;;;;;;;;;5014716;28;20037;-78
2024/01/25 05:49:04;;;;;;;0.00;0.00;;;;;;;;;;5014642;28;20040;-78
2024/01/25 05:51:30;;;;;;;0.00;0.00;;;;;;;;;;5032373;28;20040;-78
2024/01/25 05:53:56;;;;;;;0.00;0.00;;;;;;;;;;5033360;28;20029;-78
2024/01/25 05:56:21;;;;;;;0.00;0.00;;;;;;;;;;5013530;28;20038;-78
2024/01/25 05:58:47;;;;;;;0.00;0.00;;;;;;;;;;5033473;28;20025;-76
2024/01/25 06:01:13;;;;;;;0.00;0.00;;;;;;;;;;5013492;28;20030;-77
2024/01/25 06:03:40;;;;;;;0.00;0.00;;;;;;;;;;5006653;28;20033;-78
2024/01/25 06:06:07;;;;;;;0.00;0.00;;;;;;;;;;5029267;28;20087;-76
2024/01/25 06:08:34;;;;;;;0.00;0.00;;;;;;;;;;5028723;28;20029;-77
2024/01/25 06:10:59;;;;;;;0.00;0.00;;;;;;;;;;5029339;28;20044;-77
2024/01/25 06:13:25;;;;;;;0.00;0.00;;;;;;;;;;5030813;28;20673;-76
2024/01/25 06:15:51;;;;;;;0.00;0.00;;;;;;;;;;5031309;28;20013;-80
2024/01/25 06:18:19;;;;;;;0.00;0.00;;;;;;;;;;5030720;28;20037;-80
2024/01/25 06:20:45;;;;;;;0.00;0.00;;;;;;;;;;5031231;28;20115;-76
2024/01/25 06:23:11;;;;;;;0.00;0.00;;;;;;;;;;5030138;28;20057;-77
2024/01/25 06:25:37;;;;;;;0.00;0.00;;;;;;;;;;5032357;28;20026;-80
2024/01/25 06:28:03;;;;;;;0.00;0.00;;;;;;;;;;5028978;28;20048;-80
2024/01/25 06:30:29;;;;;;;0.00;0.00;;;;;;;;;;5012826;28;20340;-79
2024/01/25 06:32:54;;;;;;;0.00;0.00;;;;;;;;;;5010869;28;20052;-79
2024/01/25 06:35:20;;;;;;;0.00;0.00;;;;;;;;;;5012423;28;20112;-79
2024/01/25 06:37:45;;;;;;;0.00;0.00;;;;;;;;;;5031713;28;20039;-79
2024/01/25 06:40:11;;;;;;;0.00;0.00;;;;;;;;;;5026883;28;20215;-78
2024/01/25 06:42:37;;;;;;;0.00;0.00;;;;;;;;;;5032361;28;20037;-78
2024/01/25 06:45:03;;;;;;;0.00;0.00;;;;;;;;;;5033062;28;20048;-79
2024/01/25 06:47:29;;;;;;;0.00;0.00;;;;;;;;;;5022069;28;20032;-79
2024/01/25 06:49:54;;;;;;;0.00;0.00;;;;;;;;;;5030576;28;20045;-79
2024/01/25 06:52:20;;;;;;;0.00;0.00;;;;;;;;;;5033459;28;20155;-79
2024/01/25 06:54:46;;;;;;;0.00;0.00;;;;;;;;;;4998424;28;20112;-76
2024/01/25 06:57:11;;;;;;;0.00;0.00;;;;;;;;;;4994026;28;20036;-78
2024/01/25 06:59:40;;;;;;;0.00;0.00;;;;;;;;;;5011885;28;20025;-79
2024/01/25 07:02:06;;;;;;;0.00;0.00;;;;;;;;;;5024649;28;20516;-77
2024/01/25 07:04:32;;;;;;;0.00;0.00;;;;;;;;;;4995416;28;20029;-78
2024/01/25 07:06:59;;;;;;;0.00;0.00;;;;;;;;;;5027377;28;20028;-75
2024/01/25 07:09:25;;;;;;;0.00;0.00;;;;;;;;;;5027384;28;20040;-79
2024/01/25 07:11:51;;;;;;;0.00;0.00;;;;;;;;;;5030418;28;20022;-77
2024/01/25 07:14:16;;;;;;;0.00;0.00;;;;;;;;;;5030314;28;20025;-76
2024/01/25 07:16:42;;;;;;;0.00;0.00;;;;;;;;;;4984764;28;20103;-76
2024/01/25 07:19:07;;;;;;;0.00;0.00;;;;;;;;;;5024122;28;20447;-79
2024/01/25 07:21:33;;;;;;;0.00;0.00;;;;;;;;;;5031626;28;20493;-78
2024/01/25 07:24:03;;;;;;;0.00;0.00;;;;;;;;;;5028210;28;20453;-77
2024/01/25 07:26:30;;;;;;;0.00;0.00;;;;;;;;;;5015725;28;20034;-78
2024/01/25 07:28:59;;;;;;;0.00;0.00;;;;;;;;;;5014932;28;20021;-78
2024/01/25 07:31:27;;;;;;;0.00;0.00;;;;;;;;;;5031860;28;20040;-79
2024/01/25 07:33:53;;;;;;;0.00;0.00;;;;;;;;;;4998717;28;20677;-79
2024/01/25 07:36:19;;;;;;;0.00;0.00;;;;;;;;;;5010921;28;20033;-78
2024/01/25 07:38:46;;;;;;;0.25;0.00;;;;;;;;;;5015071;28;20037;-78
2024/01/25 07:41:32;;;;;;;0.00;0.00;;;;;;;;;;4983339;28;20053;-78
2024/01/25 07:43:58;;;;;;;0.00;0.00;;;;;;;;;;5026322;28;20061;-78
2024/01/25 07:46:26;;;;;;;0.00;0.00;;;;;;;;;;5033202;28;20034;-81
2024/01/25 07:48:52;;;;;;;0.00;0.00;;;;;;;;;;5033832;28;20131;-77
2024/01/25 07:51:18;;;;;;;0.00;0.00;;;;;;;;;;5033675;28;20136;-80
2024/01/25 07:53:44;;;;;;;0.00;0.00;;;;;;;;;;5025646;28;20051;-76
2024/01/25 07:56:10;;;;;;;0.00;0.00;;;;;;;;;;5031931;28;20041;-77
2024/01/25 07:58:56;;;;;;;;;;;;;;;;;;;;;
2024/01/25 08:01:29;;;;;;;0.00;0.00;;;;;;;;;;5020086;28;20657;-78
2024/01/25 08:03:55;;;;;;;0.00;0.00;;;;;;;;;;5033254;28;20103;-77
2024/01/25 08:06:21;;;;;;;0.00;0.00;;;;;;;;;;5021329;28;20042;-79
2024/01/25 08:08:46;;;;;;;0.00;0.00;;;;;;;;;;5032918;28;20072;-78
2024/01/25 08:11:12;;;;;;;0.00;0.00;;;;;;;;;;5031305;28;20389;-79
2024/01/25 08:13:37;;;;;;;0.00;0.00;;;;;;;;;;5002720;28;20428;-77
2024/01/25 08:16:03;;;;;;;0.00;0.00;;;;;;;;;;5019670;28;20125;-78
2024/01/25 08:18:29;;;;;;;0.00;0.00;;;;;;;;;;5023664;28;20071;-77
2024/01/25 08:20:55;;;;;;;0.00;0.00;;;;;;;;;;5032837;28;20026;-79
2024/01/25 08:23:21;;;;;;;0.00;0.00;;;;;;;;;;5032183;28;20107;-78
2024/01/25 08:25:48;;;;;;;0.00;0.00;;;;;;;;;;5030060;28;20026;-78
2024/01/25 08:28:17;;;;;;;0.00;0.00;;;;;;;;;;5020246;28;20042;-79
2024/01/25 08:31:04;;;;;;;0.00;0.00;;;;;;;;;;5020994;28;20469;-79
2024/01/25 08:33:47;;;;;;;0.10;0.00;;;;;;;;;;5022719;28;20056;-81
2024/01/25 08:36:16;;;;;;;0.00;0.00;;;;;;;;;;5019890;28;20032;-78
2024/01/25 08:38:42;;;;;;;0.00;0.00;;;;;;;;;;5011182;28;20026;-79
2024/01/25 08:41:08;;;;;;;0.00;0.00;;;;;;;;;;5032642;28;20051;-81
2024/01/25 08:43:34;;;;;;;0.00;0.00;;;;;;;;;;5014589;28;20145;-81
2024/01/25 08:46:00;;;;;;;0.00;0.00;;;;;;;;;;5031778;28;20107;-81
2024/01/25 08:48:25;;;;;;;0.00;0.00;;;;;;;;;;5031879;28;20112;-78
2024/01/25 08:50:53;;;;;;;0.00;0.00;;;;;;;;;;5012266;28;20128;-78
2024/01/25 08:53:22;;;;;;;0.00;0.00;;;;;;;;;;4999771;28;20163;-78
2024/01/25 08:55:47;;;;;;;0.00;0.00;;;;;;;;;;5011526;28;20057;-78
2024/01/25 08:58:13;;;;;;;0.00;0.00;;;;;;;;;;5009196;28;20034;-81
2024/01/25 09:00:38;;;;;;;0.00;0.00;;;;;;;;;;5009714;28;20112;-80
2024/01/25 09:03:04;;;;;;;0.00;0.00;;;;;;;;;;5008042;28;20073;-81
2024/01/25 09:05:31;;;;;;;0.00;0.00;;;;;;;;;;5011691;28;20080;-77
2024/01/25 09:07:56;;;;;;;0.00;0.00;;;;;;;;;;5010511;28;20097;-76
2024/01/25 09:10:22;;;;;;;0.00;0.00;;;;;;;;;;5011991;28;20037;-77
2024/01/25 09:12:48;;;;;;;0.00;0.00;;;;;;;;;;5011154;28;20451;-76
2024/01/25 09:15:13;;;;;;;0.00;0.00;;;;;;;;;;5009263;28;20399;-77
2024/01/25 09:17:39;;;;;;;0.00;0.00;;;;;;;;;;5012618;28;20026;-78
2024/01/25 09:20:06;;;;;;;0.00;0.00;;;;;;;;;;5010497;28;20129;-79
2024/01/25 09:22:35;;;;;;;0.00;0.00;;;;;;;;;;5009981;28;20057;-78
2024/01/25 09:25:01;;;;;;;0.00;0.00;;;;;;;;;;5010141;28;20025;-79
2024/01/25 09:27:26;;;;;;;0.00;0.00;;;;;;;;;;5012306;28;20022;-79
2024/01/25 09:29:52;;;;;;;0.00;0.00;;;;;;;;;;5010480;28;20478;-79
2024/01/25 09:32:20;;;;;;;0.00;0.00;;;;;;;;;;5010634;28;20034;-78
2024/01/25 09:34:46;;;;;;;0.00;0.00;;;;;;;;;;5007344;28;20037;-78
2024/01/25 09:37:11;;;;;;;0.00;0.00;;;;;;;;;;5011718;28;20072;-78
2024/01/25 09:39:40;;;;;;;0.00;0.00;;;;;;;;;;5012266;28;20694;-77
2024/01/25 09:42:06;;;;;;;0.00;0.00;;;;;;;;;;5011777;28;20119;-78
2024/01/25 09:44:33;;;;;;;0.00;0.00;;;;;;;;;;5012246;28;20494;-78
2024/01/25 09:47:07;;;;;;;0.00;0.00;;;;;;;;;;5013481;28;20674;-78
2024/01/25 09:49:32;;;;;;;0.00;0.00;;;;;;;;;;5011699;28;20056;-78
2024/01/25 09:51:58;;;;;;;0.00;0.00;;;;;;;;;;5011866;28;20380;-77
2024/01/25 09:54:24;;;;;;;0.00;0.00;;;;;;;;;;5014274;28;20458;-78
2024/01/25 09:56:52;;;;;;;0.00;0.00;;;;;;;;;;5013600;28;20108;-77
2024/01/25 09:59:18;;;;;;;0.00;0.00;;;;;;;;;;5002523;28;20379;-79
2024/01/25 10:01:44;;;;;;;0.00;0.00;;;;;;;;;;5015865;28;20037;-80
2024/01/25 10:04:09;;;;;;;0.00;0.00;;;;;;;;;;5024849;28;20124;-78
2024/01/25 10:06:35;;;;;;;0.00;0.00;;;;;;;;;;5021384;28;20056;-78
2024/01/25 10:09:01;;;;;;;0.00;0.00;;;;;;;;;;5025380;28;20037;-78
2024/01/25 10:11:29;;;;;;;0.00;0.00;;;;;;;;;;5003478;28;20403;-79
2024/01/25 10:13:56;;;;;;;0.00;0.00;;;;;;;;;;5016213;28;20124;-77
2024/01/25 10:16:22;;;;;;;0.00;0.00;;;;;;;;;;5012284;28;20059;-79
2024/01/25 10:18:48;;;;;;;0.00;0.00;;;;;;;;;;5022567;28;20431;-81
2024/01/25 10:21:14;;;;;;;0.00;0.00;;;;;;;;;;5020386;28;20144;-79
2024/01/25 10:23:40;;;;;;;0.00;0.00;;;;;;;;;;5020035;28;20044;-79
2024/01/25 10:26:07;;;;;;;0.00;0.00;;;;;;;;;;5018623;28;20406;-79
2024/01/25 10:28:33;;;;;;;0.00;0.00;;;;;;;;;;5015321;28;20030;-79
2024/01/25 10:31:01;;;;;;;0.00;0.00;;;;;;;;;;5010934;28;20029;-78
2024/01/25 10:33:27;;;;;;;0.00;0.00;;;;;;;;;;5019165;28;20033;-78
2024/01/25 10:36:02;;;;;;;0.00;0.00;;;;;;;;;;5012208;28;20096;-79
2024/01/25 10:38:31;;;;;;;0.00;0.00;;;;;;;;;;5012529;28;20030;-79
2024/01/25 10:41:00;;;;;;;0.00;0.00;;;;;;;;;;5014941;28;20117;-81
2024/01/25 10:43:32;;;;;;;0.00;0.00;;;;;;;;;;5001562;28;20095;-78
2024/01/25 10:46:03;;;;;;;0.00;0.00;;;;;;;;;;5001218;28;20587;-78
2024/01/25 10:48:30;;;;;;;0.00;0.00;;;;;;;;;;5004205;28;20034;-80
2024/01/25 10:50:55;;;;;;;0.00;0.00;;;;;;;;;;5020688;28;20343;-77
2024/01/25 10:53:47;;;;;;;0.00;0.00;;;;;;;;;;5015850;28;20124;-79
2024/01/25 10:56:16;;;;;;;0.00;0.00;;;;;;;;;;4996997;28;20048;-78
2024/01/25 10:58:42;;;;;;;0.00;0.00;;;;;;;;;;5011942;28;20602;-85
2024/01/25 11:01:10;;;;;;;0.00;0.00;;;;;;;;;;5014186;28;20168;-78
2024/01/25 11:03:36;;;;;;;0.00;0.00;;;;;;;;;;5015439;28;20131;-76
2024/01/25 11:06:11;;;;;;;0.00;0.00;;;;;;;;;;5014178;28;20697;-76
2024/01/25 11:08:38;;;;;;;0.00;0.00;;;;;;;;;;5014883;28;20064;-79
2024/01/25 11:11:08;;;;;;;0.00;0.00;;;;;;;;;;5029022;28;20431;-78
2024/01/25 11:13:34;;;;;;;0.00;0.00;;;;;;;;;;5004766;28;20040;-79
2024/01/25 11:16:11;;;;;;;0.00;0.00;;;;;;;;;;5031079;28;20037;-77
2024/01/25 11:18:54;;;;;;;0.00;0.00;;;;;;;;;;5007132;28;20040;-78
2024/01/25 11:21:28;;;;;;;0.00;0.00;;;;;;;;;;5040078;28;20029;-78
2024/01/25 11:24:01;;;;;;;0.00;0.00;;;;;;;;;;5024937;28;20037;-80
2024/01/25 11:26:27;;;;;;;0.00;0.00;;;;;;;;;;5040274;28;20026;-78
2024/01/25 11:28:52;;;;;;;0.00;0.00;;;;;;;;;;5039445;28;20376;-77
2024/01/25 11:31:18;;;;;;;0.00;0.00;;;;;;;;;;5024777;28;20147;-77
2024/01/25 11:33:44;;;;;;;0.00;0.00;;;;;;;;;;5009111;28;20122;-77
2024/01/25 11:36:10;;;;;;;0.00;0.00;;;;;;;;;;5025398;28;20018;-78
2024/01/25 11:38:36;;;;;;;0.00;0.00;;;;;;;;;;5038771;28;20032;-77
2024/01/25 11:41:02;;;;;;;0.00;0.00;;;;;;;;;;5023231;28;20033;-79
2024/01/25 11:43:27;;;;;;;0.00;0.00;;;;;;;;;;5029407;28;20463;-78
2024/01/25 11:45:53;;;;;;;0.00;0.00;;;;;;;;;;4996190;28;20036;-78
2024/01/25 11:48:19;;;;;;;0.00;0.00;;;;;;;;;;5011722;28;20032;-81
2024/01/25 11:50:44;;;;;;;0.00;0.00;;;;;;;;;;5029381;28;20472;-80
2024/01/25 11:53:10;;;;;;;0.00;0.00;;;;;;;;;;5029288;28;20526;-81
2024/01/25 11:55:36;;;;;;;0.00;0.00;;;;;;;;;;5029191;28;20049;-80
2024/01/25 11:58:01;;;;;;;0.00;0.00;;;;;;;;;;5013404;28;20120;-81
2024/01/25 12:00:27;;;;;;;0.00;0.00;;;;;;;;;;5011780;28;20112;-82
2024/01/25 12:02:52;;;;;;;0.00;0.00;;;;;;;;;;5030178;28;20557;-81
2024/01/25 12:05:18;;;;;;;0.00;0.00;;;;;;;;;;5012387;28;20584;-82
2024/01/25 12:07:43;;;;;;;0.00;0.00;;;;;;;;;;5013057;28;20099;-83
2024/01/25 12:10:15;;;;;;;0.00;0.00;;;;;;;;;;5030201;28;20410;-83
2024/01/25 12:12:43;;;;;;;0.00;0.00;;;;;;;;;;5012218;28;20025;-81
2024/01/25 12:15:55;;;;;;;0.00;0.00;;;;;;;;;;5026657;28;20395;-81
2024/01/25 12:18:20;;;;;;;0.00;0.00;;;;;;;;;;5032807;28;20037;-82
2024/01/25 12:20:45;;;;;;;0.00;0.00;;;;;;;;;;4997998;28;20442;-79
2024/01/25 12:23:11;;;;;;;0.00;0.00;;;;;;;;;;5028490;28;20038;-81
2024/01/25 12:25:40;;;;;;;0.00;0.00;;;;;;;;;;5031659;28;20126;-84
2024/01/25 12:28:05;;;;;;;0.00;0.00;;;;;;;;;;5029474;28;20044;-82
2024/01/25 12:30:31;;;;;;;0.00;0.00;;;;;;;;;;5032405;28;20022;-80
2024/01/25 12:32:56;;;;;;;0.00;0.00;;;;;;;;;;5034578;28;20025;-82
2024/01/25 12:35:22;;;;;;;0.00;0.00;;;;;;;;;;5035642;28;20025;-87
2024/01/25 12:37:47;;;;;;;0.00;0.00;;;;;;;;;;5018234;28;20087;-83
2024/01/25 12:40:13;;;;;;;0.00;0.00;;;;;;;;;;5035036;28;20057;-84
2024/01/25 12:42:39;;;;;;;0.00;0.00;;;;;;;;;;5034136;28;20450;-83
2024/01/25 12:45:04;;;;;;;0.00;0.00;;;;;;;;;;4999447;28;20383;-83
2024/01/25 12:47:30;;;;;;;0.00;0.00;;;;;;;;;;5032221;28;20557;-83
2024/01/25 12:49:55;;;;;;;0.00;0.00;;;;;;;;;;5032583;28;20209;-84
2024/01/25 12:52:21;;;;;;;0.00;0.00;;;;;;;;;;5015349;28;20039;-83
2024/01/25 12:54:47;;;;;;;0.00;0.00;;;;;;;;;;5016069;28;20034;-84
2024/01/25 12:57:12;;;;;;;0.00;0.00;;;;;;;;;;5016809;28;20029;-84
2024/01/25 12:59:38;;;;;;;0.00;0.00;;;;;;;;;;5016891;28;20104;-83
2024/01/25 13:02:07;;;;;;;0.00;0.00;;;;;;;;;;5017216;28;20091;-82
2024/01/25 13:04:32;;;;;;;0.00;0.00;;;;;;;;;;5035219;28;20030;-85
2024/01/25 13:06:58;;;;;;;0.00;0.00;;;;;;;;;;5018036;28;20025;-85
2024/01/25 13:09:23;;;;;;;0.00;0.00;;;;;;;;;;5035170;28;20036;-84
2024/01/25 13:11:49;;;;;;;0.00;0.00;;;;;;;;;;5039338;28;20025;-84
2024/01/25 13:14:14;;;;;;;0.00;0.00;;;;;;;;;;5010839;28;20056;-83
2024/01/25 13:16:40;;;;;;;0.00;0.00;;;;;;;;;;5005836;28;20030;-83
2024/01/25 13:19:05;;;;;;;0.00;0.00;;;;;;;;;;5035782;28;20108;-82
2024/01/25 13:21:32;;;;;;;0.00;0.00;;;;;;;;;;5034859;28;20037;-83
2024/01/25 13:23:59;;;;;;;0.00;0.00;;;;;;;;;;5021892;28;20091;-81
2024/01/25 13:26:24;;;;;;;0.00;0.00;;;;;;;;;;5022178;28;20117;-82
2024/01/25 13:28:50;;;;;;;0.00;0.00;;;;;;;;;;5038835;28;20045;-82
2024/01/25 13:31:15;;;;;;;0.00;0.00;;;;;;;;;;5034504;28;20047;-83
2024/01/25 13:33:41;;;;;;;0.00;0.00;;;;;;;;;;5001136;28;20029;-83
2024/01/25 13:36:08;;;;;;;0.00;0.00;;;;;;;;;;5037022;28;20032;-86
2024/01/25 13:38:37;;;;;;;0.00;0.00;;;;;;;;;;5001732;28;20142;-83
2024/01/25 13:41:02;;;;;;;0.00;0.00;;;;;;;;;;5035242;28;20402;-83
2024/01/25 13:43:28;;;;;;;0.00;0.00;;;;;;;;;;5034661;28;20449;-84
2024/01/25 13:45:54;;;;;;;0.00;0.00;;;;;;;;;;5000724;28;20065;-84
2024/01/25 13:48:20;;;;;;;0.00;0.00;;;;;;;;;;5017409;28;20033;-83
2024/01/25 13:50:45;;;;;;;0.00;0.00;;;;;;;;;;5034892;28;20107;-84
2024/01/25 13:53:11;;;;;;;0.00;0.00;;;;;;;;;;5017279;28;20034;-84
2024/01/25 13:55:36;;;;;;;0.00;0.00;;;;;;;;;;5034867;28;20473;-83
2024/01/25 13:58:02;;;;;;;0.00;0.00;;;;;;;;;;5000849;28;20451;-83
2024/01/25 14:00:28;;;;;;;0.00;0.00;;;;;;;;;;5034643;28;20033;-84
2024/01/25 14:02:53;;;;;;;0.00;0.00;;;;;;;;;;5016800;28;20041;-84
2024/01/25 14:05:19;;;;;;;0.00;0.00;;;;;;;;;;5017001;28;20033;-83
2024/01/25 14:07:45;;;;;;;0.00;0.00;;;;;;;;;;5017178;28;20472;-84
2024/01/25 14:10:10;;;;;;;0.00;0.00;;;;;;;;;;5000876;28;20079;-84
2024/01/25 14:12:36;;;;;;;0.00;0.00;;;;;;;;;;5000687;28;20430;-84
2024/01/25 14:15:02;;;;;;;0.00;0.00;;;;;;;;;;5016706;28;20033;-83
2024/01/25 14:17:27;;;;;;;0.00;0.00;;;;;;;;;;5000644;28;20064;-85
2024/01/25 14:19:53;;;;;;;0.00;0.00;;;;;;;;;;5034423;28;20025;-83
2024/01/25 14:22:19;;;;;;;0.00;0.00;;;;;;;;;;5034322;28;20025;-84
2024/01/25 14:24:44;;;;;;;0.00;0.00;;;;;;;;;;5034317;28;20034;-83
2024/01/25 14:27:10;;;;;;;0.00;0.00;;;;;;;;;;5016745;28;20125;-84
2024/01/25 14:29:35;;;;;;;0.00;0.00;;;;;;;;;;5016281;28;20069;-84
2024/01/25 14:32:01;;;;;;;0.00;0.00;;;;;;;;;;5016645;28;20032;-84
2024/01/25 14:34:27;;;;;;;0.00;0.00;;;;;;;;;;4984386;28;20397;-84
2024/01/25 14:36:55;;;;;;;0.00;0.00;;;;;;;;;;5034813;28;20121;-83
2024/01/25 14:39:21;;;;;;;0.00;0.00;;;;;;;;;;5035412;28;20356;-85
2024/01/25 14:41:46;;;;;;;0.00;0.00;;;;;;;;;;5001869;28;20175;-85